Terminal Aerodrome Forecast
Issued by NWS

Home | Current Version | Previous Version | Text Only | Print | Product List | Glossary On
Versions: 1 2 3 4 5 6 7 8 9 10 11 12 13
000
FTAK31 PANC 192322
TAFAVD
TAF
PAVD 192322Z 2000/2024 25006KT P6SM SCT070 BKN100
     FM200400 VRB03KT P6SM -SHRA SCT030 OVC050
     FM202000 25005KT 5SM -RA BR OVC025
      AMD LTD TO CLD VIS AND WIND=

USA.gov is the U.S. government's official web portal to all federal, state and local government web resources and services.